SIA185 VDPP-WSSS
Flight info
| Callsign | SIA185 |
|---|---|
| Flight time | 1h 41m |
| Altitude | 40000 |
| Route | CONDA2 KISAN M755 BITOD/K0843F390 M753 IPRIX/N0455F390 Q802 ELALO ELALO1A |
| Aircraft | A333/H-SDE3GHIJ2J3J5M1RVWXY/LB2D1 |
Departure
| Time | 2026-04-25 04:02 |
|---|---|
| Airport | Phnom Penh International Airport (VDPP) |
Arrival
| Time | 2026-04-25 05:43 |
|---|---|
| Airport | Singapore Changi Airport (WSSS) |
| Time | Latitude | Longitude | Altitude | Speed | Heading |
|---|---|---|---|---|---|
| 2026-04-25 04:02 | 11.48991 | 104.82637 | 3357 ft | 258 kts | 184° |
| 2026-04-25 04:02 | 11.47207 | 104.82495 | 4203 ft | 263 kts | 185° |
| 2026-04-25 04:02 | 11.45342 | 104.82312 | 5107 ft | 268 kts | 186° |
| 2026-04-25 04:02 | 11.43502 | 104.82110 | 5983 ft | 272 kts | 186° |
| 2026-04-25 04:03 | 11.41607 | 104.81889 | 6861 ft | 276 kts | 187° |
| 2026-04-25 04:03 | 11.39685 | 104.81658 | 7724 ft | 280 kts | 187° |
| 2026-04-25 04:03 | 11.37734 | 104.81421 | 8576 ft | 285 kts | 187° |
| 2026-04-25 04:03 | 11.35749 | 104.81177 | 9415 ft | 289 kts | 187° |
| 2026-04-25 04:04 | 11.33741 | 104.80913 | 10223 ft | 294 kts | 188° |
| 2026-04-25 04:04 | 11.31655 | 104.80583 | 10633 ft | 313 kts | 189° |
| 2026-04-25 04:04 | 11.29434 | 104.80211 | 10916 ft | 333 kts | 189° |
| 2026-04-25 04:04 | 11.27096 | 104.79817 | 11354 ft | 346 kts | 189° |
| 2026-04-25 04:05 | 11.24703 | 104.79413 | 11990 ft | 351 kts | 189° |
| 2026-04-25 04:05 | 11.22279 | 104.79005 | 12646 ft | 355 kts | 189° |
| 2026-04-25 04:05 | 11.19830 | 104.78592 | 13271 ft | 359 kts | 189° |
| 2026-04-25 04:05 | 11.17351 | 104.78175 | 13872 ft | 363 kts | 189° |
| 2026-04-25 04:06 | 11.14846 | 104.77754 | 14451 ft | 367 kts | 189° |
| 2026-04-25 04:06 | 11.12318 | 104.77329 | 15006 ft | 371 kts | 189° |
| 2026-04-25 04:06 | 11.09759 | 104.76899 | 15544 ft | 374 kts | 189° |
| 2026-04-25 04:06 | 11.07183 | 104.76467 | 15929 ft | 377 kts | 189° |
| 2026-04-25 04:07 | 11.04593 | 104.76033 | 15719 ft | 376 kts | 189° |
| 2026-04-25 04:07 | 11.02013 | 104.75599 | 15470 ft | 375 kts | 189° |
| 2026-04-25 04:07 | 10.99439 | 104.75166 | 15220 ft | 374 kts | 189° |
| 2026-04-25 04:07 | 10.96880 | 104.74735 | 14971 ft | 372 kts | 189° |
| 2026-04-25 04:08 | 10.94333 | 104.74307 | 14721 ft | 370 kts | 189° |
| 2026-04-25 04:08 | 10.91794 | 104.73880 | 14486 ft | 369 kts | 189° |
| 2026-04-25 04:08 | 10.89267 | 104.73456 | 14486 ft | 368 kts | 189° |
| 2026-04-25 04:08 | 10.86726 | 104.73029 | 14842 ft | 373 kts | 189° |
| 2026-04-25 04:09 | 10.84158 | 104.72597 | 15437 ft | 375 kts | 189° |
| 2026-04-25 04:09 | 10.81578 | 104.72164 | 15997 ft | 377 kts | 189° |
| 2026-04-25 04:09 | 10.78976 | 104.71727 | 16507 ft | 381 kts | 189° |
| 2026-04-25 04:09 | 10.76354 | 104.71287 | 16990 ft | 384 kts | 189° |
| 2026-04-25 04:10 | 10.73704 | 104.70842 | 17451 ft | 387 kts | 189° |
| 2026-04-25 04:10 | 10.71034 | 104.70394 | 17889 ft | 391 kts | 189° |
| 2026-04-25 04:10 | 10.68341 | 104.69943 | 18313 ft | 394 kts | 189° |
| 2026-04-25 04:10 | 10.65632 | 104.69488 | 18715 ft | 397 kts | 189° |
| 2026-04-25 04:11 | 10.60145 | 104.68569 | 19464 ft | 402 kts | 189° |
| 2026-04-25 04:11 | 10.57376 | 104.68101 | 19817 ft | 405 kts | 189° |
| 2026-04-25 04:11 | 10.54587 | 104.67628 | 20156 ft | 407 kts | 189° |
| 2026-04-25 04:12 | 10.51787 | 104.67140 | 20478 ft | 410 kts | 190° |
| 2026-04-25 04:12 | 10.48972 | 104.66637 | 20792 ft | 412 kts | 190° |
| 2026-04-25 04:12 | 10.46137 | 104.66124 | 21096 ft | 415 kts | 190° |
| 2026-04-25 04:12 | 10.43291 | 104.65608 | 21385 ft | 417 kts | 190° |
| 2026-04-25 04:13 | 10.40429 | 104.65089 | 21666 ft | 419 kts | 190° |
| 2026-04-25 04:13 | 10.37550 | 104.64568 | 21941 ft | 421 kts | 190° |
| 2026-04-25 04:13 | 10.34660 | 104.64048 | 22202 ft | 423 kts | 190° |
| 2026-04-25 04:13 | 10.31755 | 104.63525 | 22451 ft | 425 kts | 190° |
| 2026-04-25 04:14 | 10.28833 | 104.63001 | 22693 ft | 427 kts | 190° |
| 2026-04-25 04:14 | 10.25900 | 104.62475 | 22930 ft | 429 kts | 190° |
| 2026-04-25 04:14 | 10.22955 | 104.61947 | 23157 ft | 431 kts | 190° |
| 2026-04-25 04:14 | 10.19998 | 104.61416 | 23375 ft | 433 kts | 190° |
| 2026-04-25 04:15 | 10.17027 | 104.60884 | 23588 ft | 434 kts | 190° |
| 2026-04-25 04:15 | 10.14050 | 104.60350 | 23794 ft | 436 kts | 190° |
| 2026-04-25 04:15 | 10.11054 | 104.59813 | 23988 ft | 438 kts | 190° |
| 2026-04-25 04:15 | 10.08051 | 104.59275 | 24176 ft | 439 kts | 190° |
| 2026-04-25 04:16 | 10.05034 | 104.58741 | 24357 ft | 441 kts | 190° |
| 2026-04-25 04:16 | 10.02010 | 104.58220 | 24531 ft | 442 kts | 189° |
| 2026-04-25 04:16 | 9.99011 | 104.57713 | 24698 ft | 443 kts | 189° |
| 2026-04-25 04:16 | 9.95963 | 104.57201 | 24860 ft | 445 kts | 189° |
| 2026-04-25 04:17 | 9.92903 | 104.56687 | 25017 ft | 446 kts | 189° |
| 2026-04-25 04:17 | 9.89836 | 104.56171 | 25169 ft | 447 kts | 189° |
| 2026-04-25 04:17 | 9.86763 | 104.55654 | 25315 ft | 449 kts | 189° |
| 2026-04-25 04:17 | 9.83677 | 104.55133 | 25457 ft | 450 kts | 189° |
| 2026-04-25 04:18 | 9.80592 | 104.54612 | 25730 ft | 447 kts | 189° |
| 2026-04-25 04:18 | 9.77567 | 104.54101 | 26386 ft | 435 kts | 189° |
| 2026-04-25 04:18 | 9.74618 | 104.53603 | 27087 ft | 423 kts | 189° |
| 2026-04-25 04:18 | 9.71754 | 104.53119 | 27791 ft | 411 kts | 189° |
| 2026-04-25 04:19 | 9.68975 | 104.52650 | 28498 ft | 399 kts | 189° |
| 2026-04-25 04:19 | 9.67177 | 104.52347 | 28967 ft | 391 kts | 189° |
| 2026-04-25 04:19 | 9.63659 | 104.51752 | 29904 ft | 375 kts | 189° |
| 2026-04-25 04:19 | 9.61966 | 104.51467 | 30259 ft | 371 kts | 189° |
| 2026-04-25 04:20 | 9.59430 | 104.51038 | 30564 ft | 370 kts | 189° |
| 2026-04-25 04:20 | 9.56884 | 104.50608 | 30772 ft | 372 kts | 189° |
| 2026-04-25 04:20 | 9.54324 | 104.50176 | 30957 ft | 374 kts | 189° |
| 2026-04-25 04:20 | 9.51752 | 104.49742 | 31130 ft | 376 kts | 189° |
| 2026-04-25 04:21 | 9.49162 | 104.49305 | 31309 ft | 378 kts | 189° |
| 2026-04-25 04:21 | 9.46561 | 104.48866 | 31492 ft | 380 kts | 189° |
| 2026-04-25 04:21 | 9.43952 | 104.48426 | 31671 ft | 381 kts | 189° |
| 2026-04-25 04:21 | 9.41333 | 104.47985 | 31846 ft | 382 kts | 189° |
| 2026-04-25 04:22 | 9.38704 | 104.47541 | 32016 ft | 384 kts | 189° |
| 2026-04-25 04:22 | 9.36064 | 104.47096 | 32181 ft | 385 kts | 189° |
| 2026-04-25 04:22 | 9.33419 | 104.46651 | 32342 ft | 386 kts | 189° |
| 2026-04-25 04:22 | 9.30763 | 104.46203 | 32499 ft | 388 kts | 189° |
| 2026-04-25 04:23 | 9.28096 | 104.45754 | 32651 ft | 389 kts | 189° |
| 2026-04-25 04:23 | 9.25423 | 104.45303 | 32800 ft | 390 kts | 189° |
| 2026-04-25 04:23 | 9.22743 | 104.44852 | 32945 ft | 391 kts | 189° |
| 2026-04-25 04:23 | 9.20059 | 104.44400 | 33088 ft | 392 kts | 189° |
| 2026-04-25 04:24 | 9.17359 | 104.43950 | 33230 ft | 393 kts | 189° |
| 2026-04-25 04:24 | 9.14652 | 104.43506 | 33362 ft | 395 kts | 189° |
| 2026-04-25 04:24 | 9.11935 | 104.43061 | 33491 ft | 396 kts | 189° |
| 2026-04-25 04:24 | 9.09216 | 104.42612 | 33618 ft | 397 kts | 189° |
| 2026-04-25 04:25 | 9.06487 | 104.42158 | 33742 ft | 398 kts | 189° |
| 2026-04-25 04:25 | 9.03759 | 104.41701 | 34009 ft | 394 kts | 189° |
| 2026-04-25 04:25 | 9.01084 | 104.41251 | 34410 ft | 387 kts | 189° |
| 2026-04-25 04:25 | 8.98437 | 104.40805 | 34680 ft | 384 kts | 189° |
| 2026-04-25 04:26 | 8.95804 | 104.40361 | 34842 ft | 384 kts | 189° |
| 2026-04-25 04:26 | 8.93167 | 104.39916 | 34962 ft | 385 kts | 189° |
| 2026-04-25 04:26 | 8.90527 | 104.39471 | 35061 ft | 386 kts | 189° |
| 2026-04-25 04:27 | 8.85194 | 104.38574 | 35164 ft | 391 kts | 189° |
| 2026-04-25 04:27 | 8.79796 | 104.37668 | 35249 ft | 396 kts | 189° |
| 2026-04-25 04:28 | 8.74299 | 104.36745 | 35378 ft | 406 kts | 189° |
| 2026-04-25 04:28 | 8.68642 | 104.35797 | 35572 ft | 418 kts | 189° |
| 2026-04-25 04:29 | 8.62876 | 104.34831 | 35733 ft | 425 kts | 189° |
| 2026-04-25 04:29 | 8.57020 | 104.33859 | 35752 ft | 428 kts | 189° |
| 2026-04-25 04:30 | 8.51119 | 104.32871 | 35791 ft | 431 kts | 189° |
| 2026-04-25 04:30 | 8.45185 | 104.31869 | 35834 ft | 433 kts | 189° |
| 2026-04-25 04:31 | 8.39222 | 104.30866 | 35873 ft | 436 kts | 189° |
| 2026-04-25 04:31 | 8.33223 | 104.29860 | 35909 ft | 438 kts | 189° |
| 2026-04-25 04:32 | 8.27205 | 104.28852 | 35943 ft | 440 kts | 190° |
| 2026-04-25 04:32 | 8.20879 | 104.27758 | 35975 ft | 441 kts | 190° |
| 2026-04-25 04:33 | 8.14811 | 104.26720 | 36004 ft | 443 kts | 189° |
| 2026-04-25 04:33 | 8.08724 | 104.25696 | 36030 ft | 444 kts | 189° |
| 2026-04-25 04:34 | 8.02610 | 104.24671 | 36054 ft | 446 kts | 189° |
| 2026-04-25 04:34 | 7.96485 | 104.23649 | 36077 ft | 447 kts | 189° |
| 2026-04-25 04:35 | 7.90340 | 104.22623 | 36099 ft | 448 kts | 189° |
| 2026-04-25 04:35 | 7.84185 | 104.21592 | 36118 ft | 449 kts | 189° |
| 2026-04-25 04:36 | 7.77951 | 104.20556 | 36232 ft | 459 kts | 189° |
| 2026-04-25 04:36 | 7.71626 | 104.19500 | 35782 ft | 480 kts | 190° |
| 2026-04-25 04:36 | 7.68311 | 104.18880 | 35561 ft | 487 kts | 191° |
| 2026-04-25 04:37 | 7.65022 | 104.18285 | 36078 ft | 474 kts | 190° |
| 2026-04-25 04:37 | 7.61791 | 104.17745 | 36305 ft | 469 kts | 189° |
| 2026-04-25 04:37 | 7.58567 | 104.17233 | 36343 ft | 468 kts | 189° |
| 2026-04-25 04:38 | 7.52137 | 104.16216 | 36351 ft | 468 kts | 189° |
| 2026-04-25 04:38 | 7.45710 | 104.15162 | 36348 ft | 468 kts | 189° |
| 2026-04-25 04:39 | 7.39286 | 104.14092 | 36348 ft | 468 kts | 190° |
| 2026-04-25 04:39 | 7.32865 | 104.13019 | 36348 ft | 468 kts | 189° |
| 2026-04-25 04:39 | 7.29692 | 104.12500 | 36826 ft | 455 kts | 191° |
| 2026-04-25 04:40 | 7.26620 | 104.11957 | 37268 ft | 440 kts | 195° |
| 2026-04-25 04:40 | 7.23634 | 104.11795 | 37892 ft | 420 kts | 178° |
| 2026-04-25 04:40 | 7.20742 | 104.11933 | 38200 ft | 415 kts | 178° |
| 2026-04-25 04:40 | 7.17856 | 104.12141 | 38367 ft | 417 kts | 176° |
| 2026-04-25 04:41 | 7.14964 | 104.12432 | 38541 ft | 418 kts | 174° |
| 2026-04-25 04:41 | 7.12074 | 104.12812 | 38717 ft | 419 kts | 173° |
| 2026-04-25 04:41 | 7.09194 | 104.13284 | 38894 ft | 420 kts | 171° |
| 2026-04-25 04:41 | 7.06323 | 104.13854 | 39073 ft | 421 kts | 169° |
| 2026-04-25 04:42 | 7.03472 | 104.14537 | 39253 ft | 420 kts | 165° |
| 2026-04-25 04:42 | 7.00656 | 104.15281 | 39435 ft | 415 kts | 174° |
| 2026-04-25 04:42 | 6.97812 | 104.15631 | 38888 ft | 412 kts | 188° |
| 2026-04-25 04:42 | 6.94710 | 104.15782 | 36109 ft | 483 kts | 178° |
| 2026-04-25 04:43 | 6.91396 | 104.16306 | 35976 ft | 482 kts | 172° |
| 2026-04-25 04:43 | 6.84774 | 104.17272 | 35981 ft | 480 kts | 172° |
| 2026-04-25 04:44 | 6.78191 | 104.18227 | 35912 ft | 476 kts | 172° |
| 2026-04-25 04:44 | 6.71672 | 104.19208 | 35838 ft | 472 kts | 172° |
| 2026-04-25 04:45 | 6.65203 | 104.20201 | 35769 ft | 468 kts | 171° |
| 2026-04-25 04:45 | 6.58786 | 104.21189 | 35706 ft | 465 kts | 172° |
| 2026-04-25 04:46 | 6.52405 | 104.22170 | 35654 ft | 463 kts | 172° |
| 2026-04-25 04:46 | 6.46034 | 104.23148 | 35659 ft | 464 kts | 172° |
| 2026-04-25 04:47 | 6.39652 | 104.24128 | 35670 ft | 464 kts | 172° |
| 2026-04-25 04:47 | 6.33265 | 104.25108 | 35681 ft | 465 kts | 172° |
| 2026-04-25 04:48 | 6.26866 | 104.26090 | 35691 ft | 465 kts | 172° |
| 2026-04-25 04:48 | 6.20459 | 104.27072 | 35701 ft | 466 kts | 172° |
| 2026-04-25 04:49 | 6.14051 | 104.28055 | 35710 ft | 466 kts | 172° |
| 2026-04-25 04:49 | 6.07631 | 104.29039 | 35719 ft | 467 kts | 172° |
| 2026-04-25 04:50 | 6.01207 | 104.30023 | 35727 ft | 467 kts | 172° |
| 2026-04-25 04:50 | 5.94776 | 104.31009 | 35735 ft | 468 kts | 172° |
| 2026-04-25 04:51 | 5.88384 | 104.31988 | 35743 ft | 468 kts | 172° |
| 2026-04-25 04:51 | 5.81944 | 104.32974 | 35750 ft | 468 kts | 172° |
| 2026-04-25 04:52 | 5.75501 | 104.33961 | 35756 ft | 469 kts | 172° |
| 2026-04-25 04:52 | 5.69050 | 104.34948 | 35762 ft | 469 kts | 172° |
| 2026-04-25 04:53 | 5.62599 | 104.35936 | 35768 ft | 469 kts | 172° |
| 2026-04-25 04:53 | 5.57227 | 104.36758 | 35773 ft | 470 kts | 172° |
| 2026-04-25 04:54 | 5.50769 | 104.37745 | 35778 ft | 470 kts | 172° |
| 2026-04-25 04:54 | 5.44303 | 104.38734 | 35783 ft | 470 kts | 172° |
| 2026-04-25 04:55 | 5.37837 | 104.39723 | 35788 ft | 470 kts | 172° |
| 2026-04-25 04:55 | 5.31365 | 104.40713 | 35792 ft | 470 kts | 172° |
| 2026-04-25 04:56 | 5.24892 | 104.41702 | 35797 ft | 471 kts | 172° |
| 2026-04-25 04:56 | 5.18413 | 104.42692 | 35801 ft | 471 kts | 172° |
| 2026-04-25 04:57 | 5.11935 | 104.43682 | 35805 ft | 471 kts | 172° |
| 2026-04-25 04:57 | 5.05458 | 104.44671 | 35808 ft | 471 kts | 172° |
| 2026-04-25 04:58 | 4.98975 | 104.45661 | 35811 ft | 471 kts | 172° |
| 2026-04-25 04:58 | 4.92490 | 104.46652 | 35813 ft | 471 kts | 172° |
| 2026-04-25 04:59 | 4.86004 | 104.47629 | 35823 ft | 471 kts | 172° |
| 2026-04-25 04:59 | 4.79508 | 104.48477 | 35827 ft | 471 kts | 173° |
| 2026-04-25 05:00 | 4.72998 | 104.49277 | 35830 ft | 471 kts | 173° |
| 2026-04-25 05:00 | 4.66496 | 104.50082 | 35827 ft | 471 kts | 173° |
| 2026-04-25 05:01 | 4.59960 | 104.50902 | 35681 ft | 475 kts | 173° |
| 2026-04-25 05:01 | 4.53376 | 104.51733 | 35527 ft | 479 kts | 173° |
| 2026-04-25 05:02 | 4.46748 | 104.52570 | 35374 ft | 482 kts | 173° |
| 2026-04-25 05:02 | 4.40072 | 104.53413 | 35221 ft | 485 kts | 173° |
| 2026-04-25 05:03 | 4.33358 | 104.54260 | 35068 ft | 488 kts | 173° |
| 2026-04-25 05:03 | 4.26610 | 104.55110 | 34917 ft | 488 kts | 173° |
| 2026-04-25 05:04 | 4.19885 | 104.55929 | 34770 ft | 486 kts | 174° |
| 2026-04-25 05:04 | 4.13156 | 104.56592 | 34621 ft | 486 kts | 175° |
| 2026-04-25 05:05 | 4.06421 | 104.57246 | 34472 ft | 486 kts | 174° |
| 2026-04-25 05:05 | 3.99686 | 104.57903 | 34322 ft | 486 kts | 174° |
| 2026-04-25 05:06 | 3.92943 | 104.58562 | 34172 ft | 486 kts | 174° |
| 2026-04-25 05:06 | 3.86205 | 104.59221 | 34025 ft | 486 kts | 174° |
| 2026-04-25 05:07 | 3.79477 | 104.59880 | 34000 ft | 486 kts | 174° |
| 2026-04-25 05:07 | 3.72786 | 104.60539 | 34000 ft | 486 kts | 174° |
| 2026-04-25 05:08 | 3.66054 | 104.61198 | 34000 ft | 486 kts | 174° |
| 2026-04-25 05:08 | 3.59324 | 104.61858 | 34000 ft | 486 kts | 174° |
| 2026-04-25 05:09 | 3.52596 | 104.62518 | 34000 ft | 486 kts | 174° |
| 2026-04-25 05:09 | 3.45870 | 104.63178 | 34000 ft | 486 kts | 174° |
| 2026-04-25 05:10 | 3.39145 | 104.63838 | 34000 ft | 486 kts | 174° |
| 2026-04-25 05:10 | 3.35777 | 104.64169 | 33860 ft | 489 kts | 174° |
| 2026-04-25 05:10 | 3.32371 | 104.64503 | 33605 ft | 494 kts | 174° |
| 2026-04-25 05:10 | 3.28930 | 104.64840 | 33348 ft | 500 kts | 174° |
| 2026-04-25 05:11 | 3.25452 | 104.65181 | 33090 ft | 504 kts | 174° |
| 2026-04-25 05:11 | 3.21956 | 104.65524 | 32834 ft | 506 kts | 174° |
| 2026-04-25 05:11 | 3.18449 | 104.65868 | 32582 ft | 506 kts | 174° |
| 2026-04-25 05:12 | 3.11437 | 104.66557 | 32078 ft | 506 kts | 174° |
| 2026-04-25 05:12 | 3.07919 | 104.66700 | 31823 ft | 506 kts | 184° |
| 2026-04-25 05:12 | 3.04482 | 104.66047 | 31574 ft | 503 kts | 199° |
| 2026-04-25 05:12 | 3.01344 | 104.64535 | 31325 ft | 500 kts | 214° |
| 2026-04-25 05:13 | 2.98712 | 104.62297 | 31078 ft | 498 kts | 226° |
| 2026-04-25 05:13 | 2.96394 | 104.59751 | 30719 ft | 490 kts | 228° |
| 2026-04-25 05:13 | 2.94151 | 104.57220 | 30184 ft | 483 kts | 228° |
| 2026-04-25 05:13 | 2.91920 | 104.54739 | 29624 ft | 476 kts | 227° |
| 2026-04-25 05:14 | 2.89699 | 104.52308 | 29060 ft | 470 kts | 227° |
| 2026-04-25 05:14 | 2.87495 | 104.49920 | 28502 ft | 464 kts | 227° |
| 2026-04-25 05:14 | 2.85313 | 104.47569 | 27940 ft | 459 kts | 227° |
| 2026-04-25 05:15 | 2.81015 | 104.42960 | 26864 ft | 447 kts | 227° |
| 2026-04-25 05:15 | 2.78911 | 104.40693 | 26322 ft | 442 kts | 227° |
| 2026-04-25 05:15 | 2.76835 | 104.38454 | 25768 ft | 437 kts | 227° |
| 2026-04-25 05:15 | 2.74776 | 104.36243 | 25237 ft | 432 kts | 227° |
| 2026-04-25 05:16 | 2.72739 | 104.34061 | 24718 ft | 426 kts | 227° |
| 2026-04-25 05:16 | 2.70721 | 104.31904 | 24236 ft | 424 kts | 227° |
| 2026-04-25 05:16 | 2.68691 | 104.29735 | 24020 ft | 431 kts | 227° |
| 2026-04-25 05:16 | 2.66629 | 104.27535 | 23995 ft | 435 kts | 227° |
| 2026-04-25 05:17 | 2.64556 | 104.25330 | 23998 ft | 434 kts | 227° |
| 2026-04-25 05:17 | 2.62531 | 104.23178 | 23974 ft | 416 kts | 227° |
| 2026-04-25 05:17 | 2.60569 | 104.21091 | 23430 ft | 411 kts | 227° |
| 2026-04-25 05:17 | 2.58615 | 104.19006 | 22792 ft | 409 kts | 227° |
| 2026-04-25 05:18 | 2.56705 | 104.16966 | 22243 ft | 405 kts | 227° |
| 2026-04-25 05:18 | 2.54801 | 104.14933 | 21972 ft | 394 kts | 227° |
| 2026-04-25 05:18 | 2.52953 | 104.12967 | 21778 ft | 381 kts | 226° |
| 2026-04-25 05:18 | 2.50928 | 104.11331 | 21530 ft | 371 kts | 209° |
| 2026-04-25 05:19 | 2.48515 | 104.10501 | 21045 ft | 369 kts | 188° |
| 2026-04-25 05:19 | 2.45961 | 104.10369 | 20573 ft | 366 kts | 180° |
| 2026-04-25 05:19 | 2.43432 | 104.10394 | 20206 ft | 360 kts | 179° |
| 2026-04-25 05:19 | 2.40943 | 104.10429 | 19957 ft | 355 kts | 180° |
| 2026-04-25 05:20 | 2.38475 | 104.10453 | 19708 ft | 354 kts | 180° |
| 2026-04-25 05:20 | 2.36017 | 104.10467 | 19458 ft | 353 kts | 180° |
| 2026-04-25 05:20 | 2.33560 | 104.10475 | 19208 ft | 352 kts | 180° |
| 2026-04-25 05:20 | 2.31122 | 104.10480 | 18959 ft | 350 kts | 180° |
| 2026-04-25 05:21 | 2.28688 | 104.10484 | 18710 ft | 349 kts | 180° |
| 2026-04-25 05:21 | 2.26267 | 104.10487 | 18339 ft | 348 kts | 180° |
| 2026-04-25 05:21 | 2.23853 | 104.10489 | 17884 ft | 345 kts | 180° |
| 2026-04-25 05:21 | 2.21466 | 104.10489 | 17476 ft | 341 kts | 180° |
| 2026-04-25 05:22 | 2.19105 | 104.10493 | 17047 ft | 338 kts | 180° |
| 2026-04-25 05:22 | 2.16760 | 104.10496 | 16606 ft | 335 kts | 180° |
| 2026-04-25 05:22 | 2.14440 | 104.10498 | 16164 ft | 332 kts | 180° |
| 2026-04-25 05:22 | 2.12135 | 104.10499 | 15723 ft | 330 kts | 180° |
| 2026-04-25 05:23 | 2.09851 | 104.10500 | 15331 ft | 326 kts | 180° |
| 2026-04-25 05:23 | 2.07622 | 104.10500 | 15160 ft | 314 kts | 180° |
| 2026-04-25 05:23 | 2.05474 | 104.10501 | 15041 ft | 302 kts | 180° |
| 2026-04-25 05:23 | 2.03411 | 104.10501 | 14924 ft | 291 kts | 180° |
| 2026-04-25 05:24 | 2.01406 | 104.10501 | 14747 ft | 286 kts | 180° |
| 2026-04-25 05:24 | 1.99427 | 104.10501 | 14502 ft | 284 kts | 180° |
| 2026-04-25 05:24 | 1.97451 | 104.10507 | 14252 ft | 283 kts | 180° |
| 2026-04-25 05:24 | 1.95486 | 104.10515 | 14003 ft | 282 kts | 180° |
| 2026-04-25 05:25 | 1.93527 | 104.10524 | 13753 ft | 281 kts | 180° |
| 2026-04-25 05:25 | 1.91579 | 104.10533 | 13505 ft | 279 kts | 180° |
| 2026-04-25 05:25 | 1.89637 | 104.10541 | 13254 ft | 278 kts | 180° |
| 2026-04-25 05:25 | 1.87707 | 104.10551 | 13005 ft | 277 kts | 180° |
| 2026-04-25 05:26 | 1.85783 | 104.10560 | 12755 ft | 276 kts | 180° |
| 2026-04-25 05:26 | 1.83871 | 104.10568 | 12505 ft | 274 kts | 180° |
| 2026-04-25 05:26 | 1.81964 | 104.10576 | 12257 ft | 273 kts | 180° |
| 2026-04-25 05:26 | 1.80066 | 104.10584 | 12007 ft | 272 kts | 180° |
| 2026-04-25 05:27 | 1.78181 | 104.10593 | 11756 ft | 271 kts | 180° |
| 2026-04-25 05:27 | 1.76300 | 104.10601 | 11507 ft | 270 kts | 180° |
| 2026-04-25 05:27 | 1.74427 | 104.10609 | 11258 ft | 268 kts | 180° |
| 2026-04-25 05:27 | 1.72564 | 104.10618 | 11007 ft | 267 kts | 180° |
| 2026-04-25 05:28 | 1.70710 | 104.10626 | 10758 ft | 266 kts | 180° |
| 2026-04-25 05:28 | 1.68865 | 104.10634 | 10513 ft | 265 kts | 180° |
| 2026-04-25 05:28 | 1.67049 | 104.10642 | 10262 ft | 263 kts | 180° |
| 2026-04-25 05:28 | 1.65219 | 104.10650 | 10012 ft | 262 kts | 180° |
| 2026-04-25 05:29 | 1.63375 | 104.10659 | 9761 ft | 261 kts | 180° |
| 2026-04-25 05:29 | 1.61587 | 104.10709 | 9513 ft | 260 kts | 175° |
| 2026-04-25 05:29 | 1.59789 | 104.10920 | 9264 ft | 259 kts | 172° |
| 2026-04-25 05:29 | 1.58011 | 104.11178 | 9014 ft | 258 kts | 172° |
| 2026-04-25 05:30 | 1.56238 | 104.11442 | 8764 ft | 257 kts | 172° |
| 2026-04-25 05:30 | 1.54473 | 104.11705 | 8515 ft | 256 kts | 172° |
| 2026-04-25 05:30 | 1.52714 | 104.11966 | 8265 ft | 255 kts | 172° |
| 2026-04-25 05:30 | 1.50965 | 104.12224 | 8015 ft | 254 kts | 172° |
| 2026-04-25 05:31 | 1.49224 | 104.12480 | 7765 ft | 253 kts | 172° |
| 2026-04-25 05:31 | 1.47489 | 104.12735 | 7516 ft | 251 kts | 172° |
| 2026-04-25 05:31 | 1.45752 | 104.12809 | 7263 ft | 250 kts | 188° |
| 2026-04-25 05:31 | 1.44089 | 104.12350 | 7017 ft | 248 kts | 201° |
| 2026-04-25 05:32 | 1.42495 | 104.11696 | 6767 ft | 247 kts | 203° |
| 2026-04-25 05:32 | 1.40921 | 104.11015 | 6519 ft | 246 kts | 204° |
| 2026-04-25 05:32 | 1.39352 | 104.10337 | 6267 ft | 245 kts | 204° |
| 2026-04-25 05:32 | 1.37790 | 104.09666 | 6017 ft | 244 kts | 203° |
| 2026-04-25 05:33 | 1.36230 | 104.09001 | 5768 ft | 243 kts | 203° |
| 2026-04-25 05:33 | 1.34680 | 104.08342 | 5518 ft | 242 kts | 203° |
| 2026-04-25 05:33 | 1.33134 | 104.07685 | 5268 ft | 241 kts | 203° |
| 2026-04-25 05:33 | 1.31593 | 104.07032 | 5039 ft | 239 kts | 203° |
| 2026-04-25 05:34 | 1.30062 | 104.06383 | 4908 ft | 239 kts | 203° |
| 2026-04-25 05:34 | 1.28533 | 104.05736 | 4783 ft | 239 kts | 203° |
| 2026-04-25 05:34 | 1.27005 | 104.05088 | 4657 ft | 238 kts | 203° |
| 2026-04-25 05:34 | 1.25482 | 104.04443 | 4533 ft | 238 kts | 203° |
| 2026-04-25 05:35 | 1.23962 | 104.03800 | 4408 ft | 237 kts | 203° |
| 2026-04-25 05:35 | 1.22445 | 104.03157 | 4283 ft | 237 kts | 203° |
| 2026-04-25 05:35 | 1.20930 | 104.02516 | 4160 ft | 236 kts | 203° |
| 2026-04-25 05:35 | 1.19422 | 104.01877 | 4112 ft | 236 kts | 203° |
| 2026-04-25 05:36 | 1.17921 | 104.01240 | 4107 ft | 230 kts | 203° |
| 2026-04-25 05:36 | 1.16488 | 104.00632 | 4109 ft | 218 kts | 203° |
| 2026-04-25 05:36 | 1.15115 | 104.00053 | 4114 ft | 212 kts | 203° |
| 2026-04-25 05:36 | 1.13801 | 103.99393 | 4004 ft | 211 kts | 216° |
| 2026-04-25 05:37 | 1.12872 | 103.98281 | 3882 ft | 210 kts | 242° |
| 2026-04-25 05:37 | 1.12322 | 103.96926 | 3758 ft | 211 kts | 252° |
| 2026-04-25 05:37 | 1.11967 | 103.95505 | 3637 ft | 211 kts | 259° |
| 2026-04-25 05:37 | 1.11718 | 103.94063 | 3502 ft | 211 kts | 262° |
| 2026-04-25 05:38 | 1.11498 | 103.92618 | 3377 ft | 210 kts | 260° |
| 2026-04-25 05:38 | 1.11421 | 103.91167 | 3256 ft | 210 kts | 278° |
| 2026-04-25 05:38 | 1.11695 | 103.90247 | 3163 ft | 210 kts | 296° |
| 2026-04-25 05:38 | 1.13133 | 103.89013 | 2992 ft | 210 kts | 346° |
| 2026-04-25 05:39 | 1.14094 | 103.88956 | 2917 ft | 210 kts | 4° |
| 2026-04-25 05:39 | 1.15536 | 103.89250 | 2813 ft | 213 kts | 17° |
| 2026-04-25 05:39 | 1.17343 | 103.89980 | 2638 ft | 212 kts | 25° |
| 2026-04-25 05:39 | 1.18228 | 103.90440 | 2612 ft | 212 kts | 31° |
| 2026-04-25 05:40 | 1.19497 | 103.91189 | 2609 ft | 212 kts | 26° |
| 2026-04-25 05:40 | 1.20847 | 103.91778 | 2610 ft | 212 kts | 22° |
| 2026-04-25 05:40 | 1.22208 | 103.92345 | 2610 ft | 212 kts | 22° |
| 2026-04-25 05:40 | 1.23563 | 103.92925 | 2469 ft | 212 kts | 24° |
| 2026-04-25 05:41 | 1.24922 | 103.93517 | 2176 ft | 214 kts | 22° |
| 2026-04-25 05:41 | 1.26301 | 103.94101 | 1875 ft | 216 kts | 22° |
| 2026-04-25 05:41 | 1.27690 | 103.94692 | 1579 ft | 218 kts | 23° |
| 2026-04-25 05:41 | 1.29087 | 103.95285 | 1286 ft | 217 kts | 22° |
| 2026-04-25 05:42 | 1.30444 | 103.95858 | 1020 ft | 205 kts | 23° |
| 2026-04-25 05:42 | 1.31700 | 103.96393 | 754 ft | 195 kts | 22° |
| 2026-04-25 05:42 | 1.32922 | 103.96927 | 501 ft | 185 kts | 21° |
| 2026-04-25 05:42 | 1.34047 | 103.97394 | 268 ft | 166 kts | 23° |
| 2026-04-25 05:43 | 1.35052 | 103.97827 | 66 ft | 149 kts | 21° |
| 2026-04-25 05:43 | 1.35892 | 103.98173 | 33 ft | 102 kts | 23° |
| 2026-04-25 05:43 | 1.36353 | 103.98362 | 33 ft | 44 kts | 23° |
| 2026-04-25 05:43 | 1.36621 | 103.98481 | 34 ft | 39 kts | 28° |
| 2026-04-25 05:44 | 1.36793 | 103.98680 | 31 ft | 38 kts | 59° |
| 2026-04-25 05:44 | 1.36812 | 103.98909 | 29 ft | 32 kts | 119° |
| 2026-04-25 05:44 | 1.36719 | 103.99103 | 28 ft | 30 kts | 113° |
| 2026-04-25 05:44 | 1.36640 | 103.99293 | 28 ft | 30 kts | 111° |
| 2026-04-25 05:45 | 1.36549 | 103.99473 | 28 ft | 28 kts | 116° |
| 2026-04-25 05:45 | 1.36476 | 103.99653 | 29 ft | 26 kts | 121° |
| 2026-04-25 05:45 | 1.36366 | 103.99762 | 29 ft | 17 kts | 178° |
| 2026-04-25 05:45 | 1.36256 | 103.99730 | 29 ft | 17 kts | 201° |
| 2026-04-25 05:46 | 1.36145 | 103.99680 | 29 ft | 18 kts | 206° |
| 2026-04-25 05:46 | 1.36024 | 103.99635 | 29 ft | 19 kts | 203° |
| 2026-04-25 05:46 | 1.35901 | 103.99582 | 30 ft | 20 kts | 203° |
| 2026-04-25 05:46 | 1.35771 | 103.99527 | 30 ft | 20 kts | 204° |
| 2026-04-25 05:47 | 1.35640 | 103.99467 | 30 ft | 21 kts | 205° |
| 2026-04-25 05:47 | 1.35505 | 103.99406 | 30 ft | 21 kts | 202° |
| 2026-04-25 05:47 | 1.35367 | 103.99347 | 30 ft | 22 kts | 203° |
| 2026-04-25 05:47 | 1.35227 | 103.99296 | 30 ft | 22 kts | 204° |
| 2026-04-25 05:48 | 1.35088 | 103.99237 | 30 ft | 22 kts | 203° |
| 2026-04-25 05:48 | 1.34951 | 103.99177 | 30 ft | 22 kts | 204° |
| 2026-04-25 05:48 | 1.34851 | 103.99086 | 29 ft | 20 kts | 273° |
| 2026-04-25 05:48 | 1.34900 | 103.98957 | 29 ft | 20 kts | 294° |
| 2026-04-25 05:49 | 1.34894 | 103.98830 | 29 ft | 18 kts | 272° |
| 2026-04-25 05:49 | 1.34911 | 103.98775 | 29 ft | 0 kts | 293° |
| 2026-04-25 05:49 | 1.34911 | 103.98773 | 29 ft | 1 kts | 289° |
| 2026-04-25 05:50 | 1.34915 | 103.98762 | 29 ft | 0 kts | 290° |